Time;durP1;ratioP1;P1;durP2;ratioP2;P2;SDS_P1;SDS_P2;PMS_P1;PMS_P2;Temp;Humidity;BMP_temperature;BMP_pressure;BME280_temperature;BME280_humidity;BME280_pressure;Samples;Min_cycle;Max_cycle;Signal;HPM_P1;HPM_P2
2023/08/30 05:12:05;;;;;;;;;;;;;;;6.43;100.00;98950.66;5337579;23;20444;-84
2023/08/30 05:14:31;;;;;;;;;;;;;;;6.38;100.00;98947.34;4955679;29;19927;-85
2023/08/30 05:16:56;;;;;;;;;;;;;;;6.42;100.00;98951.59;4956696;29;20449;-85
2023/08/30 05:19:21;;;;;;;;;;;;;;;6.47;100.00;98960.16;4956969;28;19931;-85
2023/08/30 05:21:47;;;;;;;;;;;;;;;6.43;100.00;98958.53;4955314;29;19973;-86
2023/08/30 05:24:12;;;;;;;;;;;;;;;6.44;100.00;98952.38;4956822;28;19929;-86
2023/08/30 05:26:37;;;;;;;;;;;;;;;6.36;100.00;98958.78;4954073;29;20353;-86
2023/08/30 05:29:03;;;;;;;;;;;;;;;6.44;100.00;98958.47;4955379;28;19918;-86
2023/08/30 05:31:28;;;;;;;;;;;;;;;6.40;100.00;98958.66;4956752;28;19918;-87
2023/08/30 05:33:53;;;;;;;;;;;;;;;6.48;100.00;98957.47;4956628;28;20309;-86
2023/08/30 05:36:19;;;;;;;;;;;;;;;6.47;100.00;98949.63;4956563;28;19925;-84
2023/08/30 05:38:44;;;;;;;;;;;;;;;6.46;100.00;98947.91;4956411;28;19965;-86
2023/08/30 05:41:09;;;;;;;;;;;;;;;6.47;100.00;98944.34;4953971;29;19918;-85
2023/08/30 05:43:34;;;;;;;;;;;;;;;6.46;100.00;98950.53;4956563;28;19930;-85
2023/08/30 05:46:02;;;;;;;;;;;;;;;6.47;100.00;98949.63;4956336;28;19961;-85
2023/08/30 05:48:28;;;;;;;;;;;;;;;6.53;100.00;98949.38;4956332;28;19922;-85
2023/08/30 05:50:53;;;;;;;;;;;;;;;6.53;100.00;98946.75;4956228;28;19922;-86
2023/08/30 05:53:18;;;;;;;;;;;;;;;6.51;100.00;98951.19;4956270;28;19933;-85
2023/08/30 05:55:43;;;;;;;;;;;;;;;6.50;100.00;98933.72;4955058;28;20385;-84
2023/08/30 05:58:09;;;;;;;;;;;;;;;6.50;100.00;98942.44;4954874;29;19985;-86
2023/08/30 06:00:34;;;;;;;;;;;;;;;6.52;100.00;98945.03;4955273;29;19923;-92
2023/08/30 06:02:59;;;;;;;;;;;;;;;6.46;100.00;98940.00;4956292;28;20001;-84
2023/08/30 06:05:24;;;;;;;;;;;;;;;6.44;100.00;98933.94;4957629;28;19946;-85
2023/08/30 06:07:50;;;;;;;;;;;;;;;6.46;100.00;98940.88;4955746;28;20017;-86
2023/08/30 06:10:15;;;;;;;;;;;;;;;6.46;100.00;98951.41;4956067;28;19922;-85
2023/08/30 06:12:40;;;;;;;;;;;;;;;6.50;100.00;98952.13;4995385;23;20449;-86
2023/08/30 06:15:06;;;;;;;;;;;;;;;6.43;100.00;98954.16;4993335;28;20303;-85
2023/08/30 06:17:31;;;;;;;;;;;;;;;6.50;100.00;98949.50;4994441;28;19968;-86
2023/08/30 06:19:57;;;;;;;;;;;;;;;6.47;100.00;98950.47;4994483;28;19917;-82
2023/08/30 06:22:22;;;;;;;;;;;;;;;6.48;100.00;98956.63;5009506;28;20056;-84
2023/08/30 06:24:47;;;;;;;;;;;;;;;6.53;100.00;98959.91;4994347;28;19987;-84
2023/08/30 06:27:13;;;;;;;;;;;;;;;6.52;100.00;98958.19;4991811;28;19948;-85
2023/08/30 06:29:38;;;;;;;;;;;;;;;6.55;100.00;98973.84;4994379;28;19922;-85
2023/08/30 06:32:04;;;;;;;;;;;;;;;6.51;100.00;98974.88;4992972;28;20456;-85
2023/08/30 06:34:29;;;;;;;;;;;;;;;6.54;100.00;98982.66;4994335;28;19957;-86
2023/08/30 06:36:54;;;;;;;;;;;;;;;6.52;100.00;98971.34;4994033;28;19940;-92
2023/08/30 06:39:22;;;;;;;;;;;;;;;6.56;100.00;98967.69;4994184;28;19922;-90
2023/08/30 06:41:48;;;;;;;;;;;;;;;6.55;100.00;98976.50;4991391;28;19929;-86
2023/08/30 06:44:13;;;;;;;;;;;;;;;6.59;100.00;98964.06;4994181;28;19917;-86
2023/08/30 06:46:39;;;;;;;;;;;;;;;6.58;100.00;98970.25;4993996;28;19925;-86
2023/08/30 06:49:05;;;;;;;;;;;;;;;6.60;100.00;98966.63;4993867;28;19921;-86
2023/08/30 06:51:30;;;;;;;;;;;;;;;6.53;100.00;98960.75;4993830;28;19922;-86
2023/08/30 06:54:00;;;;;;;;;;;;;;;6.52;100.00;98961.66;4993912;28;19917;-86
2023/08/30 06:56:25;;;;;;;;;;;;;;;6.48;100.00;98967.13;4992649;28;19965;-85
2023/08/30 06:58:50;;;;;;;;;;;;;;;6.46;100.00;98968.94;4993767;28;20377;-85
2023/08/30 08:02:43;;;;;;;;;;;;;;;6.46;100.00;98974.22;4954392;28;20410;-92
2023/08/30 08:05:09;;;;;;;;;;;;;;;6.35;100.00;98982.50;4954244;28;20001;-86
2023/08/30 08:07:35;;;;;;;;;;;;;;;6.33;100.00;98974.72;4952990;28;19925;-86
2023/08/30 08:10:01;;;;;;;;;;;;;;;6.35;100.00;98982.50;4953483;28;19973;-86
2023/08/30 08:12:27;;;;;;;;;;;;;;;6.42;100.00;98972.63;4951753;29;19927;-86
2023/08/30 08:14:52;;;;;;;;;;;;;;;6.40;100.00;98977.06;4950141;29;19918;-85
2023/08/30 08:17:17;;;;;;;;;;;;;;;6.43;100.00;98967.31;4953871;28;19929;-85
2023/08/30 08:19:43;;;;;;;;;;;;;;;6.47;100.00;98971.53;4954110;28;20281;-85
2023/08/30 08:22:09;;;;;;;;;;;;;;;6.42;100.00;98967.38;4952043;28;19919;-85
2023/08/30 08:24:34;;;;;;;;;;;;;;;6.51;100.00;98961.72;4953647;28;20009;-85
2023/08/30 08:27:01;;;;;;;;;;;;;;;6.46;100.00;98964.56;4952837;28;19919;-85
2023/08/30 08:29:26;;;;;;;;;;;;;;;6.47;100.00;98955.72;4951484;28;19930;-85
2023/08/30 08:31:51;;;;;;;;;;;;;;;6.45;100.00;98959.38;4953449;28;19941;-85
2023/08/30 08:34:17;;;;;;;;;;;;;;;6.48;100.00;98957.47;4953891;28;20399;-85
2023/08/30 08:36:42;;;;;;;;;;;;;;;6.48;100.00;98960.09;4953340;28;19919;-85
2023/08/30 08:39:09;;;;;;;;;;;;;;;6.52;100.00;98964.28;4953837;28;19922;-85
2023/08/30 08:41:44;;;;;;;;;;;;;;;6.47;100.00;98962.78;4953107;29;19953;-85
2023/08/30 08:44:09;;;;;;;;;;;;;;;6.46;100.00;98963.69;4952489;29;20699;-85
2023/08/30 08:46:39;;;;;;;;;;;;;;;6.47;100.00;98965.41;4952683;28;19918;-85
2023/08/30 08:49:22;;;;;;;;;;;;;;;6.47;100.00;98962.78;4953677;28;20385;-85
2023/08/30 08:51:48;;;;;;;;;;;;;;;6.45;100.00;98962.00;4953716;28;19922;-85
2023/08/30 08:54:14;;;;;;;;;;;;;;;6.48;100.00;98956.63;4953641;28;20281;-85
2023/08/30 08:56:39;;;;;;;;;;;;;;;6.48;100.00;98956.63;4954301;28;20369;-85
2023/08/30 08:59:06;;;;;;;;;;;;;;;6.60;100.00;98955.25;4952645;28;19918;-85
2023/08/30 09:01:33;;;;;;;;;;;;;;;6.61;100.00;98949.94;4953349;28;19923;-86
2023/08/30 09:03:59;;;;;;;;;;;;;;;6.60;100.00;98956.09;4954566;28;20029;-86
2023/08/30 09:06:24;;;;;;;;;;;;;;;6.59;100.00;98959.66;4957207;28;20005;-86
2023/08/30 09:08:49;;;;;;;;;;;;;;;6.61;100.00;98957.81;4956194;28;19950;-85
2023/08/30 09:11:15;;;;;;;;;;;;;;;6.61;100.00;98952.56;4955830;29;19925;-86
2023/08/30 09:13:42;;;;;;;;;;;;;;;6.61;100.00;98952.56;4956872;28;19922;-85
2023/08/30 09:16:13;;;;;;;;;;;;;;;6.61;100.00;98951.72;4969156;28;19929;-85
2023/08/30 09:18:39;;;;;;;;;;;;;;;6.67;100.00;98952.31;4955819;28;19923;-86
2023/08/30 09:21:08;;;;;;;;;;;;;;;6.57;100.00;98943.06;4956802;29;19919;-86
2023/08/30 09:23:34;;;;;;;;;;;;;;;6.59;100.00;98949.16;4956557;29;19915;-85
2023/08/30 09:25:59;;;;;;;;;;;;;;;6.62;100.00;98946.41;4955265;28;19938;-85
2023/08/30 09:28:24;;;;;;;;;;;;;;;6.60;100.00;98940.31;4956675;28;20017;-85
2023/08/30 09:30:50;;;;;;;;;;;;;;;6.61;100.00;98936.78;4955640;28;19922;-86
2023/08/30 09:33:16;;;;;;;;;;;;;;;6.64;100.00;98935.81;4955151;28;20448;-86
2023/08/30 09:35:45;;;;;;;;;;;;;;;6.61;100.00;98930.66;4955182;28;20313;-85
2023/08/30 09:38:15;;;;;;;;;;;;;;;6.66;100.00;98928.69;4937637;28;19931;-85
2023/08/30 09:40:41;;;;;;;;;;;;;;;6.66;100.00;98918.16;4956578;28;19922;-86
2023/08/30 09:43:09;;;;;;;;;;;;;;;6.65;100.00;98919.06;4954968;28;19928;-88
2023/08/30 09:45:34;;;;;;;;;;;;;;;6.71;100.00;98917.03;4954129;28;20437;-86
2023/08/30 09:48:00;;;;;;;;;;;;;;;6.73;100.00;98916.97;4955679;28;20017;-86
2023/08/30 09:50:26;;;;;;;;;;;;;;;6.72;100.00;98918.75;4956077;28;20374;-86
2023/08/30 09:52:52;;;;;;;;;;;;;;;6.77;100.00;98913.31;4954207;28;19927;-84
2023/08/30 09:55:18;;;;;;;;;;;;;;;6.71;100.00;98903.88;4954932;29;19918;-85
2023/08/30 09:57:43;;;;;;;;;;;;;;;6.78;100.00;98906.25;4956246;28;19925;-86
2023/08/30 10:00:12;;;;;;;;;;;;;;;6.80;100.00;98912.34;4953893;29;20058;-86
2023/08/30 10:02:37;;;;;;;;;;;;;;;6.80;100.00;98917.59;4955125;28;19929;-86
2023/08/30 10:05:04;;;;;;;;;;;;;;;6.79;100.00;98914.09;4955291;28;19926;-85
2023/08/30 10:07:30;;;;;;;;;;;;;;;6.83;100.00;98896.38;4953887;28;20385;-85
2023/08/30 10:09:56;;;;;;;;;;;;;;;6.87;100.00;98905.88;4956109;28;19929;-85
2023/08/30 10:12:23;;;;;;;;;;;;;;;6.81;100.00;98890.34;4954145;28;19919;-84
2023/08/30 10:14:48;;;;;;;;;;;;;;;6.69;100.00;98887.28;4952730;28;19923;-86
2023/08/30 10:17:17;;;;;;;;;;;;;;;6.84;100.00;98892.84;4954234;28;19926;-86
2023/08/30 10:19:43;;;;;;;;;;;;;;;6.87;100.00;98884.81;4954474;29;19923;-84
2023/08/30 10:22:09;;;;;;;;;;;;;;;6.87;100.00;98882.19;4954161;28;19922;-83
2023/08/30 10:25:06;;;;;;;;;;;;;;;6.76;100.00;98881.78;4954041;28;19969;-85
2023/08/30 10:27:33;;;;;;;;;;;;;;;6.83;100.00;98875.31;4937466;28;20021;-84
2023/08/30 10:29:59;;;;;;;;;;;;;;;6.83;100.00;98877.94;4969000;28;19990;-83
2023/08/30 10:32:24;;;;;;;;;;;;;;;6.84;100.00;98874.41;4952944;28;20398;-82
2023/08/30 10:34:51;;;;;;;;;;;;;;;6.86;100.00;98877.81;4955355;28;20377;-84
2023/08/30 10:37:21;;;;;;;;;;;;;;;6.93;100.00;98868.75;4955461;28;20029;-84
2023/08/30 10:39:48;;;;;;;;;;;;;;;6.86;100.00;98862.91;4953639;28;20480;-83
2023/08/30 10:42:14;;;;;;;;;;;;;;;6.89;100.00;98860.13;4954758;29;19918;-82
2023/08/30 10:44:48;;;;;;;;;;;;;;;6.97;100.00;98857.16;4952736;28;19950;-83
2023/08/30 10:47:20;;;;;;;;;;;;;;;6.88;100.00;98861.03;4969485;28;19930;-85
2023/08/30 10:49:48;;;;;;;;;;;;;;;6.89;100.00;98859.25;4968448;28;19926;-84
2023/08/30 10:52:14;;;;;;;;;;;;;;;6.85;100.00;98861.19;4953051;28;19926;-83
2023/08/30 10:54:39;;;;;;;;;;;;;;;6.87;100.00;98853.22;4954905;29;19918;-83
2023/08/30 10:57:05;;;;;;;;;;;;;;;6.90;100.00;98851.28;4954212;28;20028;-84
2023/08/30 10:59:30;;;;;;;;;;;;;;;6.91;100.00;98852.19;4953551;29;20329;-84
2023/08/30 11:01:56;;;;;;;;;;;;;;;6.94;100.00;98843.28;4953577;28;20394;-84
2023/08/30 11:04:22;;;;;;;;;;;;;;;6.92;100.00;98843.34;4954438;28;19977;-87
2023/08/30 11:06:48;;;;;;;;;;;;;;;6.87;100.00;98840.88;4952548;28;20427;-85
2023/08/30 11:09:14;;;;;;;;;;;;;;;6.90;100.00;98840.75;4952768;28;20025;-85
2023/08/30 11:11:39;;;;;;;;;;;;;;;6.91;100.00;98844.28;4953708;28;19970;-85
2023/08/30 11:14:10;;;;;;;;;;;;;;;6.90;100.00;98853.09;4952435;28;19992;-83
2023/08/30 11:16:36;;;;;;;;;;;;;;;6.90;100.00;98853.94;4954596;29;19977;-89
2023/08/30 11:19:03;;;;;;;;;;;;;;;6.95;100.00;98852.88;4953472;28;19919;-83
2023/08/30 11:21:29;;;;;;;;;;;;;;;6.93;100.00;98855.59;4952999;29;19926;-83
2023/08/30 11:23:54;;;;;;;;;;;;;;;6.89;100.00;98854.00;4966119;28;20509;-84
2023/08/30 11:26:19;;;;;;;;;;;;;;;6.99;100.00;98844.78;4952630;28;20024;-85
2023/08/30 11:28:48;;;;;;;;;;;;;;;6.93;100.00;98849.47;4952532;28;20138;-85
2023/08/30 11:31:23;;;;;;;;;;;;;;;7.00;100.00;98846.47;4953591;28;19922;-84
2023/08/30 11:33:58;;;;;;;;;;;;;;;7.00;100.00;98838.59;4968519;28;19970;-86
2023/08/30 11:36:24;;;;;;;;;;;;;;;7.02;100.00;98842.03;4954136;28;20434;-85
2023/08/30 11:38:50;;;;;;;;;;;;;;;7.05;100.00;98836.63;4951522;28;19982;-85
2023/08/30 11:41:17;;;;;;;;;;;;;;;7.02;100.00;98831.50;4951908;28;19930;-86
2023/08/30 11:43:42;;;;;;;;;;;;;;;7.00;100.00;98830.69;4952351;28;19934;-85
2023/08/30 11:46:08;;;;;;;;;;;;;;;7.04;100.00;98829.63;4951399;28;19923;-84
2023/08/30 11:48:34;;;;;;;;;;;;;;;6.97;100.00;98833.44;4951612;28;19923;-86
2023/08/30 11:50:59;;;;;;;;;;;;;;;7.07;100.00;98834.78;4952517;28;19930;-86
2023/08/30 11:53:25;;;;;;;;;;;;;;;6.98;100.00;98829.06;4954314;28;19919;-85
2023/08/30 11:55:50;;;;;;;;;;;;;;;6.97;100.00;98833.44;4953713;28;19922;-85
2023/08/30 11:58:17;;;;;;;;;;;;;;;7.01;100.00;98840.31;4952821;29;19918;-85
2023/08/30 12:00:43;;;;;;;;;;;;;;;6.99;100.00;98831.63;4950960;28;19922;-85
2023/08/30 12:03:08;;;;;;;;;;;;;;;7.00;100.00;98821.94;4952024;29;19919;-85
2023/08/30 12:05:35;;;;;;;;;;;;;;;6.99;100.00;98814.94;4953330;28;20397;-85
2023/08/30 12:08:00;;;;;;;;;;;;;;;7.01;100.00;98824.50;4967254;28;20144;-85
2023/08/30 12:10:28;;;;;;;;;;;;;;;7.06;100.00;98821.66;4953938;29;20366;-85
2023/08/30 12:12:53;;;;;;;;;;;;;;;7.04;100.00;98818.25;4953619;28;20005;-85
2023/08/30 12:15:19;;;;;;;;;;;;;;;7.03;100.00;98816.53;4950869;28;20058;-85
2023/08/30 12:17:44;;;;;;;;;;;;;;;7.01;100.00;98816.59;4952650;28;20285;-85
2023/08/30 12:20:23;;;;;;;;;;;;;;;7.03;100.00;98822.66;4952868;28;19919;-85
2023/08/30 12:22:50;;;;;;;;;;;;;;;7.07;100.00;98818.13;4967441;28;19923;-85
2023/08/30 12:25:17;;;;;;;;;;;;;;;7.02;100.00;98815.69;4946592;28;19933;-86
2023/08/30 12:27:42;;;;;;;;;;;;;;;7.01;100.00;98808.69;4953055;28;19926;-86
2023/08/30 12:30:08;;;;;;;;;;;;;;;6.99;100.00;98807.03;4950983;28;19930;-85
2023/08/30 12:32:33;;;;;;;;;;;;;;;7.00;100.00;98806.97;4951531;28;19926;-86
2023/08/30 12:34:58;;;;;;;;;;;;;;;7.03;100.00;98813.91;4967506;28;19922;-85
2023/08/30 12:37:24;;;;;;;;;;;;;;;6.94;100.00;98802.00;4953453;28;19922;-85
2023/08/30 12:39:49;;;;;;;;;;;;;;;6.98;100.00;98808.84;4956190;28;19923;-85
2023/08/30 12:42:14;;;;;;;;;;;;;;;7.06;100.00;98806.72;4955773;28;20285;-84
2023/08/30 12:44:40;;;;;;;;;;;;;;;7.11;100.00;98806.50;4953889;28;19952;-85
2023/08/30 12:47:05;;;;;;;;;;;;;;;7.06;100.00;98817.25;4956327;28;20270;-85
2023/08/30 12:49:30;;;;;;;;;;;;;;;6.97;100.00;98815.00;4955421;29;20391;-85
2023/08/30 12:51:55;;;;;;;;;;;;;;;6.99;100.00;98807.91;4955877;28;19989;-84
2023/08/30 12:54:21;;;;;;;;;;;;;;;7.05;100.00;98815.56;4956549;28;19918;-84
2023/08/30 12:56:46;;;;;;;;;;;;;;;6.98;100.00;98814.09;4956688;28;19949;-85
2023/08/30 12:59:11;;;;;;;;;;;;;;;7.15;100.00;98816.00;4955710;28;19930;-86
2023/08/30 13:01:36;;;;;;;;;;;;;;;7.05;100.00;98822.59;4955612;28;19968;-86
2023/08/30 13:04:03;;;;;;;;;;;;;;;7.12;100.00;98812.66;4957323;28;19918;-85
2023/08/30 13:06:28;;;;;;;;;;;;;;;7.04;100.00;98824.38;4956105;28;20028;-86
2023/08/30 13:08:54;;;;;;;;;;;;;;;7.11;100.00;98821.47;4955813;28;20013;-84
2023/08/30 13:11:19;;;;;;;;;;;;;;;7.09;100.00;98817.13;4957074;28;20289;-86
2023/08/30 13:13:44;;;;;;;;;;;;;;;7.13;100.00;98816.97;4956501;28;19985;-85
2023/08/30 13:16:09;;;;;;;;;;;;;;;7.11;100.00;98813.56;4938651;28;19933;-85
2023/08/30 13:18:34;;;;;;;;;;;;;;;7.10;100.00;98812.72;4954545;28;19932;-85
2023/08/30 13:21:00;;;;;;;;;;;;;;;7.00;100.00;98804.34;4955632;29;19926;-85
2023/08/30 13:23:25;;;;;;;;;;;;;;;7.01;100.00;98813.97;4956938;28;19927;-85
2023/08/30 13:25:50;;;;;;;;;;;;;;;7.07;100.00;98818.97;4955914;28;19968;-85
2023/08/30 13:28:15;;;;;;;;;;;;;;;7.01;100.00;98813.13;4954986;28;19973;-83
2023/08/30 13:30:44;;;;;;;;;;;;;;;7.07;100.00;98813.72;4954987;28;19922;-85
2023/08/30 13:33:10;;;;;;;;;;;;;;;7.03;100.00;98811.28;4954731;28;19985;-84
2023/08/30 13:35:36;;;;;;;;;;;;;;;7.07;100.00;98818.13;4954954;28;20408;-84
2023/08/30 13:38:01;;;;;;;;;;;;;;;7.16;100.00;98822.13;4956543;28;19923;-84
2023/08/30 13:40:26;;;;;;;;;;;;;;;7.27;100.00;98833.91;4956354;28;19923;-85
2023/08/30 13:42:51;;;;;;;;;;;;;;;7.01;100.00;98829.78;4955122;28;19928;-85
2023/08/30 13:45:16;;;;;;;;;;;;;;;7.08;100.00;98836.50;4955849;28;19918;-86
2023/08/30 13:47:42;;;;;;;;;;;;;;;7.06;100.00;98830.41;4955572;28;20017;-85
2023/08/30 13:50:08;;;;;;;;;;;;;;;6.99;100.00;98842.16;4954612;28;19933;-88
2023/08/30 13:52:33;;;;;;;;;;;;;;;7.06;100.00;98832.22;4970862;28;20061;-84
2023/08/30 13:54:58;;;;;;;;;;;;;;;7.11;100.00;98837.28;4955550;28;20048;-85
2023/08/30 13:57:24;;;;;;;;;;;;;;;7.08;100.00;98847.03;4956333;28;19922;-85
2023/08/30 13:59:49;;;;;;;;;;;;;;;7.06;100.00;98837.47;4953841;28;20040;-85
2023/08/30 14:02:17;;;;;;;;;;;;;;;7.04;100.00;98844.59;4954781;29;19923;-85
2023/08/30 14:04:42;;;;;;;;;;;;;;;7.15;100.00;98837.09;4955099;28;19926;-85
2023/08/30 14:07:09;;;;;;;;;;;;;;;7.13;100.00;98838.06;4955732;28;20380;-85
2023/08/30 14:09:34;;;;;;;;;;;;;;;7.13;100.00;98843.31;4954726;28;19970;-85
2023/08/30 14:11:59;;;;;;;;;;;;;;;7.16;100.00;98837.94;4955553;28;19922;-86
2023/08/30 14:14:25;;;;;;;;;;;;;;;7.13;100.00;98835.44;4954674;29;19923;-86
2023/08/30 14:16:50;;;;;;;;;;;;;;;7.03;100.00;98843.72;4955977;28;20800;-86
2023/08/30 14:19:16;;;;;;;;;;;;;;;7.10;100.00;98844.34;4956208;28;19923;-86
2023/08/30 14:21:41;;;;;;;;;;;;;;;7.11;100.00;98834.66;4955879;28;20021;-86
2023/08/30 14:24:06;;;;;;;;;;;;;;;7.11;100.00;98832.00;4951256;28;20013;-86
2023/08/30 14:26:32;;;;;;;;;;;;;;;7.05;100.00;98825.22;4951120;28;19927;-85
2023/08/30 14:28:57;;;;;;;;;;;;;;;7.08;100.00;98831.22;4947945;28;19922;-85
2023/08/30 14:31:22;;;;;;;;;;;;;;;7.11;100.00;98830.22;4950401;28;19926;-86
2023/08/30 14:33:48;;;;;;;;;;;;;;;7.15;100.00;98831.81;4964705;28;20546;-86
2023/08/30 14:36:15;;;;;;;;;;;;;;;7.11;100.00;98827.59;4950092;28;19926;-86
2023/08/30 14:38:41;;;;;;;;;;;;;;;7.15;100.00;98823.91;4948389;28;20396;-86
2023/08/30 14:41:06;;;;;;;;;;;;;;;7.21;100.00;98825.41;4952679;28;19931;-86
2023/08/30 14:43:31;;;;;;;;;;;;;;;7.18;100.00;98817.63;4953570;28;19934;-85
2023/08/30 14:46:00;;;;;;;;;;;;;;;7.19;100.00;98808.81;4952052;28;19929;-85
2023/08/30 14:48:26;;;;;;;;;;;;;;;7.23;100.00;98813.03;4954447;28;19926;-85
2023/08/30 14:50:51;;;;;;;;;;;;;;;7.23;100.00;98813.03;4954842;28;19965;-86
2023/08/30 14:53:16;;;;;;;;;;;;;;;7.20;100.00;98808.75;4955217;28;20001;-85
2023/08/30 14:55:44;;;;;;;;;;;;;;;7.16;100.00;98806.31;4952808;28;20278;-85
2023/08/30 14:58:09;;;;;;;;;;;;;;;7.20;100.00;98808.75;4953695;28;20340;-85
2023/08/30 15:00:34;;;;;;;;;;;;;;;7.18;100.00;98807.97;4951071;28;19926;-86
2023/08/30 15:02:59;;;;;;;;;;;;;;;7.21;100.00;98799.06;4952811;28;19927;-85
2023/08/30 15:05:25;;;;;;;;;;;;;;;7.19;100.00;98798.28;4952870;28;19926;-85
2023/08/30 15:07:50;;;;;;;;;;;;;;;7.21;100.00;98791.16;4952988;28;19923;-85
2023/08/30 15:10:15;;;;;;;;;;;;;;;7.21;100.00;98791.16;4953624;29;20017;-84
2023/08/30 15:12:41;;;;;;;;;;;;;;;7.25;100.00;98793.56;4949519;28;20016;-85
2023/08/30 15:15:06;;;;;;;;;;;;;;;7.21;100.00;98789.38;4952239;29;20287;-85
2023/08/30 15:17:32;;;;;;;;;;;;;;;7.26;100.00;98799.72;4947330;28;19922;-85
2023/08/30 15:19:57;;;;;;;;;;;;;;;7.27;100.00;98798.78;4949823;28;19918;-88
2023/08/30 15:22:22;;;;;;;;;;;;;;;7.23;100.00;98786.69;4951710;28;19922;-85
2023/08/30 15:24:48;;;;;;;;;;;;;;;7.32;100.00;98788.88;4946098;28;19922;-85
2023/08/30 15:27:17;;;;;;;;;;;;;;;7.23;100.00;98790.16;4944116;28;19989;-86
2023/08/30 15:29:42;;;;;;;;;;;;;;;7.30;100.00;98789.91;4950533;28;20296;-85
2023/08/30 15:32:08;;;;;;;;;;;;;;;7.25;100.00;98784.81;4952017;28;19929;-85
2023/08/30 15:34:33;;;;;;;;;;;;;;;7.29;100.00;98778.47;4952541;28;20332;-85
2023/08/30 15:36:58;;;;;;;;;;;;;;;7.30;100.00;98782.84;4953426;28;20456;-85
2023/08/30 15:39:24;;;;;;;;;;;;;;;7.31;100.00;98778.41;4968519;28;19922;-88
2023/08/30 15:41:49;;;;;;;;;;;;;;;7.27;100.00;98785.59;4954501;28;19922;-85
2023/08/30 15:44:15;;;;;;;;;;;;;;;7.21;100.00;98784.13;4953421;28;19918;-84
2023/08/30 15:46:40;;;;;;;;;;;;;;;7.28;100.00;98789.97;4954265;28;19957;-85
2023/08/30 15:49:05;;;;;;;;;;;;;;;7.26;100.00;98790.03;4952956;28;19930;-85
2023/08/30 15:51:31;;;;;;;;;;;;;;;7.23;100.00;98807.75;4953021;28;19938;-83
2023/08/30 15:53:56;;;;;;;;;;;;;;;7.25;100.00;98821.72;4953041;28;19966;-85
2023/08/30 15:56:21;;;;;;;;;;;;;;;7.39;100.00;98823.75;4952932;29;20013;-85
2023/08/30 15:58:47;;;;;;;;;;;;;;;7.32;100.00;98825.78;4953052;28;19965;-85
2023/08/30 16:01:14;;;;;;;;;;;;;;;7.23;100.00;98834.13;4951510;29;20013;-82
2023/08/30 16:03:39;;;;;;;;;;;;;;;7.17;100.00;98847.56;4954208;28;19930;-84
2023/08/30 16:06:05;;;;;;;;;;;;;;;7.18;100.00;98862.41;4952709;28;20307;-84
2023/08/30 16:08:30;;;;;;;;;;;;;;;7.27;100.00;98862.91;4954103;28;19919;-84
2023/08/30 16:10:55;;;;;;;;;;;;;;;7.26;100.00;98862.97;4954230;28;19923;-84
2023/08/30 16:13:21;;;;;;;;;;;;;;;7.20;100.00;98852.69;4953324;28;19922;-85
2023/08/30 16:15:46;;;;;;;;;;;;;;;7.28;100.00;98855.84;4952891;28;20380;-84
2023/08/30 16:18:11;;;;;;;;;;;;;;;7.19;100.00;98837.78;4953944;28;20362;-84
2023/08/30 16:20:37;;;;;;;;;;;;;;;7.24;100.00;98836.69;4953998;28;19926;-84
2023/08/30 16:23:02;;;;;;;;;;;;;;;7.24;100.00;98841.06;4952371;28;19953;-84
2023/08/30 16:25:28;;;;;;;;;;;;;;;7.28;100.00;98832.13;4952320;28;19922;-84
2023/08/30 16:27:53;;;;;;;;;;;;;;;7.26;100.00;98842.72;4952283;28;19978;-84
2023/08/30 16:30:18;;;;;;;;;;;;;;;8.85;100.00;98831.75;4952666;28;19927;-86
2023/08/30 16:32:44;;;;;;;;;;;;;;;7.99;100.00;98834.13;4952355;28;19922;-86
2023/08/30 16:35:09;;;;;;;;;;;;;;;7.46;100.00;98836.53;4943521;28;19923;-86
2023/08/30 16:37:34;;;;;;;;;;;;;;;7.37;100.00;98851.94;4945949;28;20370;-87
2023/08/30 16:39:59;;;;;;;;;;;;;;;7.37;100.00;98838.75;4951164;28;19933;-88
2023/08/30 16:42:25;;;;;;;;;;;;;;;7.30;100.00;98840.81;4951779;28;20326;-85
2023/08/30 16:44:50;;;;;;;;;;;;;;;7.30;100.00;98832.06;4950848;28;19926;-86
2023/08/30 16:47:15;;;;;;;;;;;;;;;7.25;100.00;98838.38;4948405;28;21878;-86
2023/08/30 16:49:43;;;;;;;;;;;;;;;7.24;100.00;98839.31;4950999;28;20369;-88
2023/08/30 16:52:10;;;;;;;;;;;;;;;7.28;100.00;98843.50;4956801;28;20047;-86
2023/08/30 16:54:35;;;;;;;;;;;;;;;7.27;100.00;98836.53;4950602;28;19933;-86
2023/08/30 16:57:02;;;;;;;;;;;;;;;7.22;100.00;98842.94;4965446;28;19930;-86
2023/08/30 16:59:27;;;;;;;;;;;;;;;7.26;100.00;98842.72;4951474;28;19929;-85
2023/08/30 17:01:53;;;;;;;;;;;;;;;7.30;100.00;98834.69;4951754;28;20330;-85
2023/08/30 17:04:18;;;;;;;;;;;;;;;7.23;100.00;98829.69;4951024;28;19930;-85
2023/08/30 17:06:43;;;;;;;;;;;;;;;7.27;100.00;98835.66;4953076;28;20400;-86
2023/08/30 17:09:08;;;;;;;;;;;;;;;7.23;100.00;98836.75;4951760;28;19973;-85
2023/08/30 17:11:34;;;;;;;;;;;;;;;7.16;100.00;98832.66;4951679;28;20389;-86
2023/08/30 17:14:00;;;;;;;;;;;;;;;7.25;100.00;98821.72;4965194;28;20382;-85
2023/08/30 17:16:25;;;;;;;;;;;;;;;7.22;100.00;98833.25;4951713;28;19986;-86
2023/08/30 17:18:50;;;;;;;;;;;;;;;7.21;100.00;98842.09;4950619;28;19930;-85
2023/08/30 17:21:16;;;;;;;;;;;;;;;7.25;100.00;98843.66;4951997;28;20305;-87
2023/08/30 17:23:41;;;;;;;;;;;;;;;7.26;100.00;98839.25;4953830;28;19922;-86
2023/08/30 17:26:07;;;;;;;;;;;;;;;7.21;100.00;98841.22;4956389;28;19923;-86
2023/08/30 17:28:33;;;;;;;;;;;;;;;7.23;100.00;98850.78;4970704;28;19919;-87
2023/08/30 17:30:58;;;;;;;;;;;;;;;7.23;100.00;98849.94;4970406;28;19986;-85
2023/08/30 17:33:23;;;;;;;;;;;;;;;7.23;100.00;98842.88;4956861;28;19965;-86
2023/08/30 17:35:51;;;;;;;;;;;;;;;7.27;100.00;98840.94;4955170;29;19919;-85
2023/08/30 17:38:17;;;;;;;;;;;;;;;7.26;100.00;98845.38;4955997;28;20329;-85
2023/08/30 17:40:42;;;;;;;;;;;;;;;7.22;100.00;98848.19;4955200;28;20013;-85
2023/08/30 17:43:07;;;;;;;;;;;;;;;7.27;100.00;98851.47;4954951;28;20498;-85
2023/08/30 17:45:32;;;;;;;;;;;;;;;7.24;100.00;98855.13;4955290;28;19923;-85
2023/08/30 17:48:02;;;;;;;;;;;;;;;7.28;100.00;98854.06;4956387;28;19965;-86
2023/08/30 17:50:28;;;;;;;;;;;;;;;7.26;100.00;98858.53;4955735;29;19966;-86
2023/08/30 17:52:53;;;;;;;;;;;;;;;7.26;100.00;98862.97;4956341;28;19993;-85
2023/08/30 17:55:18;;;;;;;;;;;;;;;7.25;100.00;98855.97;4954906;29;20389;-86
2023/08/30 17:57:44;;;;;;;;;;;;;;;7.19;100.00;98846.53;4956312;28;19918;-86
2023/08/30 18:00:10;;;;;;;;;;;;;;;7.24;100.00;98862.16;4953699;28;19922;-86
2023/08/30 18:02:36;;;;;;;;;;;;;;;7.24;100.00;98865.66;4955207;29;20377;-86
2023/08/30 18:05:06;;;;;;;;;;;;;;;7.26;100.00;98860.34;4954669;29;19973;-85
2023/08/30 18:07:31;;;;;;;;;;;;;;;7.25;100.00;98861.25;4954919;29;20366;-84
2023/08/30 18:09:56;;;;;;;;;;;;;;;7.23;100.00;98878.91;4954764;29;19995;-86
2023/08/30 18:12:21;;;;;;;;;;;;;;;7.25;100.00;98887.59;4954703;29;19919;-85
2023/08/30 18:14:47;;;;;;;;;;;;;;;7.36;100.00;98913.47;4954814;28;19969;-85
2023/08/30 18:17:12;;;;;;;;;;;;;;;7.25;100.00;98914.78;4955883;28;19922;-85
2023/08/30 18:19:37;;;;;;;;;;;;;;;7.21;100.00;98910.59;4954528;28;20013;-86
2023/08/30 18:22:04;;;;;;;;;;;;;;;7.20;100.00;98911.50;4955760;28;19919;-85
2023/08/30 18:24:30;;;;;;;;;;;;;;;7.17;100.00;98913.41;4955731;28;19923;-84
2023/08/30 18:26:56;;;;;;;;;;;;;;;7.23;100.00;98919.28;4954290;29;19965;-85
2023/08/30 18:29:23;;;;;;;;;;;;;;;7.27;100.00;98912.97;4952636;28;19922;-85
2023/08/30 18:31:48;;;;;;;;;;;;;;;7.19;100.00;98909.78;4953782;29;19919;-85
2023/08/30 18:34:15;;;;;;;;;;;;;;;7.21;100.00;98910.59;4955444;28;19925;-86
2023/08/30 18:36:42;;;;;;;;;;;;;;;7.22;100.00;98914.91;4953826;28;19926;-85
2023/08/30 18:39:08;;;;;;;;;;;;;;;7.24;100.00;98930.66;4953514;29;19918;-85
2023/08/30 18:41:33;;;;;;;;;;;;;;;7.17;100.00;98934.50;4954033;29;19926;-86
2023/08/30 18:43:59;;;;;;;;;;;;;;;7.22;100.00;98937.78;4954363;29;20388;-85
2023/08/30 18:46:24;;;;;;;;;;;;;;;7.21;100.00;98929.03;4953023;28;19966;-85
2023/08/30 18:48:51;;;;;;;;;;;;;;;7.19;100.00;98936.13;4955335;28;19926;-85
2023/08/30 18:51:20;;;;;;;;;;;;;;;7.12;100.00;98939.97;4955297;28;19929;-85
2023/08/30 18:53:48;;;;;;;;;;;;;;;7.18;100.00;98941.47;4953375;29;21363;-85